M/T Vemaoil Xi — 9HWD7 — position and weather

sailwx.info

Track history (hours):
 
Tides and Currents Weather Stations Pressure Air Temp Water Temp Dewpoint Dewpoint Depression Visibility Wind Speed Wind Dir Waves Ship Positions

M/T Vemaoil Xi

Last reported at 2018-May-17 05:58 UTC. Time now 2018-May-21 15:10 UTC.
Position N 35°53' E 014°48'.

Length 105 m; draft 5.4 m.

Type: Tanker. MMSI: 215631000.

Date/timePositionNaut miles runAvg speedWind from/ knotsBaromVisibWave heightAir tempDewpointWater temp
2018-May-17 05:58N 35°53' E 014°48'0 0.0
2018-May-17 00:07N 35°53' E 014°48'0 0.1
2018-May-16 23:46N 35°53' E 014°48'0 0.0
2018-May-16 23:22N 35°53' E 014°48'0 0.3
2018-May-16 23:00N 35°53' E 014°48'14 3.1
2018-May-16 18:33N 35°54' E 014°31'1 5.4
2018-May-16 18:27N 35°54' E 014°31'5 7.3
2018-May-16 17:43N 35°54' E 014°38'2 7.5
2018-May-16 17:30N 35°54' E 014°40'4 7.4
2018-May-16 17:00N 35°54' E 014°45'3 0.2
2018-May-16 02:00N 35°53' E 014°48'1 0.3
2018-May-15 23:59N 35°52' E 014°48'0 0.3
2018-May-15 23:29N 35°52' E 014°49'0 0.5
2018-May-15 22:46N 35°52' E 014°48'2 6.5
2018-May-15 22:29N 35°52' E 014°46'3 6.8
2018-May-15 21:59N 35°50' E 014°42'3 6.9
2018-May-15 21:30N 35°49' E 014°38'4 0.3
2018-May-15 08:37N 35°49' E 014°33'0 3.3
2018-May-15 08:30N 35°49' E 014°33'1 1.8
2018-May-15 08:00N 35°49' E 014°34'2 4.2
2018-May-15 07:26N 35°49' E 014°37'3 6.3
2018-May-15 07:00N 35°50' E 014°41'1 1.6
2018-May-15 06:13N 35°50' E 014°42'0 0.1
2018-May-15 05:58N 35°50' E 014°42'0 0.0
2018-May-15 05:28N 35°50' E 014°42'0 0.0
2018-May-15 04:58N 35°50' E 014°42'0 0.0
2018-May-15 04:28N 35°50' E 014°42'0 0.0
2018-May-15 03:58N 35°50' E 014°42'0 0.1
2018-May-15 03:25N 35°50' E 014°42'0 0.0
2018-May-15 02:49N 35°50' E 014°42'0 0.0
2018-May-15 02:19N 35°50' E 014°42'0 0.1
2018-May-15 01:58N 35°50' E 014°42'0 0.0
2018-May-14 22:04N 35°50' E 014°42'0 0.0
2018-May-14 21:55N 35°50' E 014°42'0 0.1
2018-May-14 21:22N 35°50' E 014°42'0 0.0
2018-May-14 20:58N 35°50' E 014°42'0 0.0
2018-May-14 20:25N 35°50' E 014°42'0 0.0
2018-May-14 17:13N 35°50' E 014°42'0 0.0
2018-May-14 16:43N 35°50' E 014°42'0 0.0
2018-May-14 16:25N 35°50' E 014°42'0 0.0
2018-May-14 15:58N 35°50' E 014°42'0 0.0
2018-May-14 15:28N 35°50' E 014°42'0 0.0
2018-May-14 14:58N 35°50' E 014°42'0 0.0
2018-May-14 14:28N 35°50' E 014°42'0 0.0
2018-May-14 13:58N 35°50' E 014°42'0 0.0
2018-May-14 13:28N 35°50' E 014°42'0 0.0
2018-May-14 12:58N 35°50' E 014°42'0 0.0
2018-May-14 12:28N 35°50' E 014°42'0 0.0
2018-May-14 11:55N 35°50' E 014°42'0 0.0
2018-May-14 11:28N 35°50' E 014°42'0 0.0
2018-May-14 10:58N 35°50' E 014°42'0 0.0
2018-May-14 10:25N 35°50' E 014°42'0 0.0
2018-May-14 04:52N 35°50' E 014°42'0 0.1
2018-May-14 04:07N 35°50' E 014°42'0 0.0
2018-May-14 01:52N 35°50' E 014°42'0 0.0
2018-May-14 01:25N 35°50' E 014°42'0 0.0
2018-May-13 23:25N 35°50' E 014°42'0 0.0
2018-May-13 22:01N 35°50' E 014°42'0 0.0
2018-May-13 21:31N 35°50' E 014°42'0 0.0
2018-May-13 21:16N 35°50' E 014°42'0 0.0
2018-May-13 20:58N 35°50' E 014°42'0 0.0
2018-May-13 20:19N 35°50' E 014°42'0 0.1
2018-May-13 18:58N 35°50' E 014°42'0 0.0
2018-May-13 18:13N 35°50' E 014°42'0 0.0
2018-May-13 17:58N 35°50' E 014°42'0 0.1
2018-May-13 17:28N 35°50' E 014°42'0 0.0
2018-May-13 16:55N 35°50' E 014°42'0 0.0
2018-May-13 14:10N 35°50' E 014°42'0 0.0
2018-May-13 13:55N 35°50' E 014°42'0 0.0
2018-May-13 13:19N 35°50' E 014°42'0 0.0
2018-May-13 12:58N 35°50' E 014°42'0 0.0
2018-May-13 12:22N 35°50' E 014°42'0 0.0
2018-May-13 12:00N 35°50' E 014°42'0 0.0
2018-May-13 11:30N 35°50' E 014°42'0 0.0
2018-May-13 11:00N 35°50' E 014°42'0 0.0
2018-May-13 10:30N 35°50' E 014°42'0 0.0
2018-May-13 09:58N 35°50' E 014°42'0 0.0
2018-May-13 09:29N 35°50' E 014°42'0 0.0
2018-May-13 09:00N 35°50' E 014°42'0 0.0
2018-May-13 08:30N 35°50' E 014°42'0 0.1
2018-May-13 08:00N 35°50' E 014°42'0 0.0
2018-May-13 07:22N 35°50' E 014°42'0 0.1
2018-May-13 07:00N 35°50' E 014°42'0 0.1
2018-May-13 06:30N 35°50' E 014°42'0 0.0
2018-May-13 05:55N 35°50' E 014°42'0 0.0
2018-May-13 05:30N 35°50' E 014°42'0 0.0
2018-May-13 05:00N 35°50' E 014°42'0 0.1
2018-May-13 04:30N 35°50' E 014°42'0 0.1
2018-May-13 04:00N 35°50' E 014°42'0 0.0
2018-May-13 03:29N 35°50' E 014°42'0 0.0
2018-May-13 03:00N 35°50' E 014°42'0 0.1
2018-May-13 02:30N 35°50' E 014°42'0 0.1
2018-May-13 01:59N 35°50' E 014°42'0 0.1
2018-May-13 01:30N 35°50' E 014°42'0 0.1
2018-May-13 01:00N 35°50' E 014°42'0 0.0
2018-May-13 00:30N 35°50' E 014°42'0 0.0
2018-May-13 00:00N 35°50' E 014°42'0 0.0
2018-May-12 23:28N 35°50' E 014°42'0 0.0
2018-May-12 23:00N 35°50' E 014°42'0 0.0
2018-May-12 22:30N 35°50' E 014°42'0 0.0
2018-May-12 16:26N 35°50' E 014°42'0 0.0
2018-May-12 15:48N 35°50' E 014°42'0 0.1
2018-May-12 15:30N 35°50' E 014°42'0 0.0
2018-May-12 15:00N 35°50' E 014°42'0 0.0
2018-May-12 14:30N 35°50' E 014°42'0 0.0
2018-May-12 13:59N 35°50' E 014°42'0 0.1
2018-May-12 13:23N 35°50' E 014°42'0 0.1
2018-May-12 13:00N 35°50' E 014°42'0 0.0
2018-May-12 12:30N 35°50' E 014°42'0 0.0
2018-May-12 11:55N 35°50' E 014°42'0 0.0
2018-May-12 11:14N 35°50' E 014°42'0 0.0
2018-May-12 10:58N 35°50' E 014°42'0 0.0
2018-May-12 10:30N 35°50' E 014°42'0 0.0
2018-May-12 10:00N 35°50' E 014°42'0 0.0
2018-May-12 08:02N 35°50' E 014°42'0 0.0
2018-May-12 07:43N 35°50' E 014°42'0 0.0
2018-May-12 07:23N 35°50' E 014°42'0 0.1
2018-May-12 06:49N 35°50' E 014°42'1 1.9
2018-May-12 06:24N 35°50' E 014°43'3 6.9
2018-May-12 05:58N 35°51' E 014°46'1 2.0
2018-May-12 05:30N 35°52' E 014°47'0 0.0
2018-May-12 04:57N 35°52' E 014°47'0 0.0
2018-May-11 23:06N 35°52' E 014°47'0 0.0
2018-May-11 22:04N 35°52' E 014°47'0 1.0
2018-May-11 21:54N 35°52' E 014°47'3 5.7
2018-May-11 21:26N 35°55' E 014°46'0 0.5
2018-May-11 20:59N 35°55' E 014°46'0 0.1
2018-May-11 20:30N 35°55' E 014°46'0 0.1
2018-May-11 20:00N 35°55' E 014°46'0 0.0
2018-May-11 19:08N 35°55' E 014°47'0 0.0
2018-May-11 17:36N 35°55' E 014°46'0 0.1
2018-May-11 17:28N 35°55' E 014°47'0 0.0
2018-May-11 16:54N 35°55' E 014°46'0 0.0
2018-May-11 16:26N 35°55' E 014°46'0 0.0
2018-May-11 15:57N 35°55' E 014°46'0 0.0
2018-May-11 15:28N 35°55' E 014°46'0 0.0
2018-May-11 14:50N 35°55' E 014°46'0 0.0
2018-May-11 14:29N 35°55' E 014°46'0 0.0
2018-May-11 13:58N 35°55' E 014°46'0 0.0
2018-May-11 13:30N 35°55' E 014°46'0 0.0
2018-May-11 12:59N 35°55' E 014°46'0 0.0
2018-May-11 12:30N 35°55' E 014°46'0 0.0
2018-May-11 12:00N 35°55' E 014°46'0 0.0
2018-May-11 11:30N 35°55' E 014°46'0 0.0
2018-May-11 10:58N 35°55' E 014°46'0 0.0
2018-May-11 10:29N 35°55' E 014°46'0 0.0
2018-May-11 10:00N 35°55' E 014°46'0 0.1
2018-May-11 09:30N 35°55' E 014°46'0 0.0
2018-May-11 08:57N 35°55' E 014°46'0 0.0
2018-May-11 08:25N 35°55' E 014°46'0 0.0
2018-May-11 07:57N 35°55' E 014°46'0 0.0
2018-May-11 07:25N 35°55' E 014°46'0 0.0
2018-May-11 06:59N 35°55' E 014°46'0 0.0
2018-May-11 06:28N 35°55' E 014°46'0 0.0
2018-May-11 05:59N 35°55' E 014°46'0 0.0
2018-May-11 05:30N 35°55' E 014°46'0 0.0
2018-May-11 04:55N 35°55' E 014°46'0 0.0
2018-May-11 04:30N 35°55' E 014°46'1 2.4
2018-May-11 03:58N 35°55' E 014°45'0 0.4
2018-May-11 03:24N 35°55' E 014°45'0 0.0
2018-May-11 02:35N 35°55' E 014°45'0 0.0
2018-May-11 02:14N 35°55' E 014°45'0 0.0
2018-May-11 02:00N 35°55' E 014°45'0 0.1
2018-May-11 01:30N 35°55' E 014°45'1 2.0
2018-May-11 01:00N 35°55' E 014°44'3 7.1
2018-May-11 00:30N 35°54' E 014°39'4 7.1
2018-May-11 00:00N 35°54' E 014°35'3 0.2
2018-May-10 10:31N 35°54' E 014°31'0 6.6
2018-May-10 10:30N 35°54' E 014°32'3 6.7
2018-May-10 10:00N 35°54' E 014°36'4 6.8
2018-May-10 09:29N 35°54' E 014°40'3 6.9
2018-May-10 09:01N 35°55' E 014°44'1 0.9
2018-May-10 08:22N 35°55' E 014°45'0 0.0
2018-May-10 07:55N 35°55' E 014°45'0 0.0
2018-May-10 07:26N 35°55' E 014°45'0 0.0
2018-May-10 06:57N 35°55' E 014°45'0 0.0
2018-May-10 06:27N 35°55' E 014°45'0 0.0
2018-May-10 06:00N 35°55' E 014°45'0 0.0
2018-May-10 05:25N 35°55' E 014°45'0 0.0
2018-May-10 04:47N 35°55' E 014°45'0 0.0
2018-May-10 04:28N 35°55' E 014°45'0 0.0
2018-May-10 03:59N 35°55' E 014°45'0 0.0
2018-May-10 03:30N 35°55' E 014°45'0 0.0
2018-May-10 03:00N 35°55' E 014°45'0 0.0
2018-May-10 02:27N 35°55' E 014°45'0 0.0
2018-May-10 01:44N 35°55' E 014°45'0 0.0
2018-May-10 01:28N 35°55' E 014°45'0 0.0
2018-May-10 00:51N 35°55' E 014°45'0 0.1
2018-May-10 00:29N 35°55' E 014°45'0 0.0
2018-May-09 23:41N 35°55' E 014°45'0 0.0
2018-May-09 23:21N 35°55' E 014°45'0 0.1
2018-May-09 22:59N 35°55' E 014°45'0 0.1
2018-May-09 22:27N 35°55' E 014°45'0 0.0
2018-May-09 21:54N 35°55' E 014°45'0 0.0
2018-May-09 21:29N 35°55' E 014°45'0 0.1
2018-May-09 21:00N 35°55' E 014°45'0 0.0
2018-May-09 18:36N 35°55' E 014°45'0 0.0
2018-May-09 18:30N 35°55' E 014°45'0 0.0
2018-May-09 17:58N 35°55' E 014°45'0 0.0
2018-May-09 17:16N 35°55' E 014°45'0 0.0
2018-May-09 16:58N 35°55' E 014°45'0 0.0
2018-May-09 16:29N 35°55' E 014°45'0 0.0
2018-May-09 15:52N 35°55' E 014°45'0 0.0
2018-May-09 15:29N 35°55' E 014°45'0 0.0
2018-May-09 14:58N 35°55' E 014°45'0 0.0
2018-May-09 14:29N 35°55' E 014°45'0 0.0
2018-May-09 13:58N 35°55' E 014°45'0 0.0
2018-May-09 13:29N 35°55' E 014°45'0 0.0
2018-May-09 12:52N 35°55' E 014°45'0 0.0
2018-May-09 12:29N 35°55' E 014°45'0 0.0
2018-May-09 12:00N 35°55' E 014°45'0 0.0
2018-May-09 11:30N 35°55' E 014°45'0 0.0
2018-May-09 10:52N 35°55' E 014°45'0 0.0
2018-May-09 10:30N 35°55' E 014°45'3 0.3
2018-May-09 02:16N 35°54' E 014°48'3 6.7
2018-May-09 01:52N 35°54' E 014°45'1 1.6
2018-May-09 01:29N 35°55' E 014°45'0 0.0
2018-May-09 00:55N 35°55' E 014°45'0 0.0
2018-May-09 00:23N 35°55' E 014°45'0 0.0
2018-May-09 00:00N 35°55' E 014°45'0 0.0
2018-May-08 23:30N 35°55' E 014°45'0 0.1
2018-May-08 23:00N 35°55' E 014°45'0 0.0
2018-May-08 22:29N 35°55' E 014°45'0 0.2
2018-May-08 22:00N 35°55' E 014°45'0 0.1
2018-May-08 21:30N 35°55' E 014°45'0 0.1
2018-May-08 21:00N 35°55' E 014°45'0 0.1
2018-May-08 20:30N 35°55' E 014°45'0 0.0
2018-May-08 20:00N 35°55' E 014°45'0 0.1
2018-May-08 19:30N 35°55' E 014°45'0 0.0
2018-May-08 19:00N 35°55' E 014°45'0 0.0
2018-May-08 18:30N 35°55' E 014°45'0 0.0
2018-May-08 18:00N 35°55' E 014°45'0 0.0
2018-May-08 17:30N 35°55' E 014°45'0 0.0
2018-May-08 17:00N 35°55' E 014°45'0 0.0
2018-May-08 16:30N 35°55' E 014°45'0 0.0
2018-May-08 15:59N 35°55' E 014°45'0 0.1
2018-May-08 15:28N 35°55' E 014°45'3 3.4
2018-May-08 14:40N 35°53' E 014°48'0 0.0
2018-May-08 13:06N 35°54' E 014°48'0 0.0
2018-May-08 12:57N 35°54' E 014°48'0 0.0
2018-May-08 12:27N 35°54' E 014°48'0 0.0
2018-May-08 12:00N 35°54' E 014°48'0 0.0
2018-May-08 11:17N 35°54' E 014°48'0 0.1
2018-May-08 11:00N 35°54' E 014°48'0 0.0
2018-May-08 10:29N 35°54' E 014°48'0 0.1
2018-May-08 09:59N 35°54' E 014°48'0 0.0
2018-May-08 09:30N 35°54' E 014°48'0 0.0
2018-May-08 07:39N 35°53' E 014°48'0 0.0
2018-May-08 07:30N 35°53' E 014°48'0 0.0
2018-May-08 07:00N 35°53' E 014°48'0 0.0
2018-May-08 06:30N 35°53' E 014°48'0 0.0
2018-May-08 05:57N 35°53' E 014°48'0 0.0
2018-May-08 05:30N 35°53' E 014°48'0 0.0
2018-May-08 05:00N 35°53' E 014°48'0 0.0
2018-May-08 04:28N 35°53' E 014°48'0 0.1
2018-May-08 03:51N 35°53' E 014°48'0 0.2
2018-May-08 03:30N 35°54' E 014°48'0 0.0
2018-May-08 03:00N 35°54' E 014°48'0 0.0
2018-May-08 02:28N 35°54' E 014°48'0 0.0
2018-May-08 01:59N 35°54' E 014°48'0 0.0
2018-May-08 00:29N 35°54' E 014°48'0 0.0
2018-May-07 23:58N 35°54' E 014°48'0 0.0
2018-May-07 23:28N 35°54' E 014°48'0 0.5
2018-May-07 23:00N 35°54' E 014°48'3 2.3
2018-May-07 21:51N 35°53' E 014°45'0 0.3
2018-May-07 21:12N 35°53' E 014°45'0 0.0
2018-May-07 20:57N 35°53' E 014°45'0 0.0
2018-May-07 20:29N 35°53' E 014°45'0 0.0
2018-May-07 20:00N 35°53' E 014°45'0 0.1
2018-May-07 19:27N 35°53' E 014°45'0 0.8
2018-May-07 19:00N 35°53' E 014°45'0 0.0
2018-May-07 18:30N 35°53' E 014°45'0 0.1
2018-May-07 17:57N 35°53' E 014°45'0 0.0
2018-May-07 17:28N 35°53' E 014°45'0 0.1
2018-May-07 17:00N 35°53' E 014°45'0 0.0
2018-May-07 16:30N 35°53' E 014°45'1 1.2
2018-May-07 16:00N 35°53' E 014°45'1 2.3
2018-May-07 15:30N 35°53' E 014°47'0 0.1
2018-May-07 15:00N 35°53' E 014°47'0 0.0
2018-May-07 14:30N 35°53' E 014°47'0 0.0
2018-May-07 14:00N 35°53' E 014°47'0 0.0
2018-May-07 13:29N 35°53' E 014°47'0 0.0
2018-May-07 13:00N 35°53' E 014°47'0 0.0
2018-May-07 12:30N 35°53' E 014°47'0 0.0
2018-May-07 12:00N 35°53' E 014°47'0 0.0
2018-May-07 11:30N 35°53' E 014°47'0 0.0
2018-May-07 11:00N 35°53' E 014°47'0 0.8
2018-May-07 10:30N 35°53' E 014°46'0 0.7
2018-May-07 10:00N 35°53' E 014°47'0 0.0
2018-May-07 09:30N 35°53' E 014°47'0 0.0
2018-May-07 09:00N 35°53' E 014°47'0 0.0
2018-May-07 08:28N 35°53' E 014°47'0 0.0
2018-May-07 08:00N 35°53' E 014°47'0 0.1
2018-May-07 07:30N 35°53' E 014°47'0 0.0
2018-May-07 07:00N 35°53' E 014°47'0 0.0
2018-May-07 06:30N 35°53' E 014°47'0 0.0
2018-May-07 06:00N 35°53' E 014°47'  
Track history (hours):
 
Tides and Currents Weather Stations Pressure Air Temp Water Temp Dewpoint Dewpoint Depression Visibility Wind Speed Wind Dir Waves Ship Positions

M/T Vemaoil Xi

Last reported at 2018-May-17 05:58 UTC. Time now 2018-May-21 15:10 UTC.
Position N 35°53' E 014°48'.

Length 105 m; draft 5.4 m.

Type: Tanker. MMSI: 215631000.

Date/timePositionNaut miles runAvg speedWind from/ knotsBaromVisibWave heightAir tempDewpointWater temp
2018-May-17 05:58N 35°53' E 014°48'0 0.0
2018-May-17 00:07N 35°53' E 014°48'0 0.1
2018-May-16 23:46N 35°53' E 014°48'0 0.0
2018-May-16 23:22N 35°53' E 014°48'0 0.3
2018-May-16 23:00N 35°53' E 014°48'14 3.1
2018-May-16 18:33N 35°54' E 014°31'1 5.4
2018-May-16 18:27N 35°54' E 014°31'5 7.3
2018-May-16 17:43N 35°54' E 014°38'2 7.5
2018-May-16 17:30N 35°54' E 014°40'4 7.4
2018-May-16 17:00N 35°54' E 014°45'3 0.2
2018-May-16 02:00N 35°53' E 014°48'1 0.3
2018-May-15 23:59N 35°52' E 014°48'0 0.3
2018-May-15 23:29N 35°52' E 014°49'0 0.5
2018-May-15 22:46N 35°52' E 014°48'2 6.5
2018-May-15 22:29N 35°52' E 014°46'3 6.8
2018-May-15 21:59N 35°50' E 014°42'3 6.9
2018-May-15 21:30N 35°49' E 014°38'4 0.3
2018-May-15 08:37N 35°49' E 014°33'0 3.3
2018-May-15 08:30N 35°49' E 014°33'1 1.8
2018-May-15 08:00N 35°49' E 014°34'2 4.2
2018-May-15 07:26N 35°49' E 014°37'3 6.3
2018-May-15 07:00N 35°50' E 014°41'1 1.6
2018-May-15 06:13N 35°50' E 014°42'0 0.1
2018-May-15 05:58N 35°50' E 014°42'0 0.0
2018-May-15 05:28N 35°50' E 014°42'0 0.0
2018-May-15 04:58N 35°50' E 014°42'0 0.0
2018-May-15 04:28N 35°50' E 014°42'0 0.0
2018-May-15 03:58N 35°50' E 014°42'0 0.1
2018-May-15 03:25N 35°50' E 014°42'0 0.0
2018-May-15 02:49N 35°50' E 014°42'0 0.0
2018-May-15 02:19N 35°50' E 014°42'0 0.1
2018-May-15 01:58N 35°50' E 014°42'0 0.0
2018-May-14 22:04N 35°50' E 014°42'0 0.0
2018-May-14 21:55N 35°50' E 014°42'0 0.1
2018-May-14 21:22N 35°50' E 014°42'0 0.0
2018-May-14 20:58N 35°50' E 014°42'0 0.0
2018-May-14 20:25N 35°50' E 014°42'0 0.0
2018-May-14 17:13N 35°50' E 014°42'0 0.0
2018-May-14 16:43N 35°50' E 014°42'0 0.0
2018-May-14 16:25N 35°50' E 014°42'0 0.0
2018-May-14 15:58N 35°50' E 014°42'0 0.0
2018-May-14 15:28N 35°50' E 014°42'0 0.0
2018-May-14 14:58N 35°50' E 014°42'0 0.0
2018-May-14 14:28N 35°50' E 014°42'0 0.0
2018-May-14 13:58N 35°50' E 014°42'0 0.0
2018-May-14 13:28N 35°50' E 014°42'0 0.0
2018-May-14 12:58N 35°50' E 014°42'0 0.0
2018-May-14 12:28N 35°50' E 014°42'0 0.0
2018-May-14 11:55N 35°50' E 014°42'0 0.0
2018-May-14 11:28N 35°50' E 014°42'0 0.0
2018-May-14 10:58N 35°50' E 014°42'0 0.0
2018-May-14 10:25N 35°50' E 014°42'0 0.0
2018-May-14 04:52N 35°50' E 014°42'0 0.1
2018-May-14 04:07N 35°50' E 014°42'0 0.0
2018-May-14 01:52N 35°50' E 014°42'0 0.0
2018-May-14 01:25N 35°50' E 014°42'0 0.0
2018-May-13 23:25N 35°50' E 014°42'0 0.0
2018-May-13 22:01N 35°50' E 014°42'0 0.0
2018-May-13 21:31N 35°50' E 014°42'0 0.0
2018-May-13 21:16N 35°50' E 014°42'0 0.0
2018-May-13 20:58N 35°50' E 014°42'0 0.0
2018-May-13 20:19N 35°50' E 014°42'0 0.1
2018-May-13 18:58N 35°50' E 014°42'0 0.0
2018-May-13 18:13N 35°50' E 014°42'0 0.0
2018-May-13 17:58N 35°50' E 014°42'0 0.1
2018-May-13 17:28N 35°50' E 014°42'0 0.0
2018-May-13 16:55N 35°50' E 014°42'0 0.0
2018-May-13 14:10N 35°50' E 014°42'0 0.0
2018-May-13 13:55N 35°50' E 014°42'0 0.0
2018-May-13 13:19N 35°50' E 014°42'0 0.0
2018-May-13 12:58N 35°50' E 014°42'0 0.0
2018-May-13 12:22N 35°50' E 014°42'0 0.0
2018-May-13 12:00N 35°50' E 014°42'0 0.0
2018-May-13 11:30N 35°50' E 014°42'0 0.0
2018-May-13 11:00N 35°50' E 014°42'0 0.0
2018-May-13 10:30N 35°50' E 014°42'0 0.0
2018-May-13 09:58N 35°50' E 014°42'0 0.0
2018-May-13 09:29N 35°50' E 014°42'0 0.0
2018-May-13 09:00N 35°50' E 014°42'0 0.0
2018-May-13 08:30N 35°50' E 014°42'0 0.1
2018-May-13 08:00N 35°50' E 014°42'0 0.0
2018-May-13 07:22N 35°50' E 014°42'0 0.1
2018-May-13 07:00N 35°50' E 014°42'0 0.1
2018-May-13 06:30N 35°50' E 014°42'0 0.0
2018-May-13 05:55N 35°50' E 014°42'0 0.0
2018-May-13 05:30N 35°50' E 014°42'0 0.0
2018-May-13 05:00N 35°50' E 014°42'0 0.1
2018-May-13 04:30N 35°50' E 014°42'0 0.1
2018-May-13 04:00N 35°50' E 014°42'0 0.0
2018-May-13 03:29N 35°50' E 014°42'0 0.0
2018-May-13 03:00N 35°50' E 014°42'0 0.1
2018-May-13 02:30N 35°50' E 014°42'0 0.1
2018-May-13 01:59N 35°50' E 014°42'0 0.1
2018-May-13 01:30N 35°50' E 014°42'0 0.1
2018-May-13 01:00N 35°50' E 014°42'0 0.0
2018-May-13 00:30N 35°50' E 014°42'0 0.0
2018-May-13 00:00N 35°50' E 014°42'0 0.0
2018-May-12 23:28N 35°50' E 014°42'0 0.0
2018-May-12 23:00N 35°50' E 014°42'0 0.0
2018-May-12 22:30N 35°50' E 014°42'0 0.0
2018-May-12 16:26N 35°50' E 014°42'0 0.0
2018-May-12 15:48N 35°50' E 014°42'0 0.1
2018-May-12 15:30N 35°50' E 014°42'0 0.0
2018-May-12 15:00N 35°50' E 014°42'0 0.0
2018-May-12 14:30N 35°50' E 014°42'0 0.0
2018-May-12 13:59N 35°50' E 014°42'0 0.1
2018-May-12 13:23N 35°50' E 014°42'0 0.1
2018-May-12 13:00N 35°50' E 014°42'0 0.0
2018-May-12 12:30N 35°50' E 014°42'0 0.0
2018-May-12 11:55N 35°50' E 014°42'0 0.0
2018-May-12 11:14N 35°50' E 014°42'0 0.0
2018-May-12 10:58N 35°50' E 014°42'0 0.0
2018-May-12 10:30N 35°50' E 014°42'0 0.0
2018-May-12 10:00N 35°50' E 014°42'0 0.0
2018-May-12 08:02N 35°50' E 014°42'0 0.0
2018-May-12 07:43N 35°50' E 014°42'0 0.0
2018-May-12 07:23N 35°50' E 014°42'0 0.1
2018-May-12 06:49N 35°50' E 014°42'1 1.9
2018-May-12 06:24N 35°50' E 014°43'3 6.9
2018-May-12 05:58N 35°51' E 014°46'1 2.0
2018-May-12 05:30N 35°52' E 014°47'0 0.0
2018-May-12 04:57N 35°52' E 014°47'0 0.0
2018-May-11 23:06N 35°52' E 014°47'0 0.0
2018-May-11 22:04N 35°52' E 014°47'0 1.0
2018-May-11 21:54N 35°52' E 014°47'3 5.7
2018-May-11 21:26N 35°55' E 014°46'0 0.5
2018-May-11 20:59N 35°55' E 014°46'0 0.1
2018-May-11 20:30N 35°55' E 014°46'0 0.1
2018-May-11 20:00N 35°55' E 014°46'0 0.0
2018-May-11 19:08N 35°55' E 014°47'0 0.0
2018-May-11 17:36N 35°55' E 014°46'0 0.1
2018-May-11 17:28N 35°55' E 014°47'0 0.0
2018-May-11 16:54N 35°55' E 014°46'0 0.0
2018-May-11 16:26N 35°55' E 014°46'0 0.0
2018-May-11 15:57N 35°55' E 014°46'0 0.0
2018-May-11 15:28N 35°55' E 014°46'0 0.0
2018-May-11 14:50N 35°55' E 014°46'0 0.0
2018-May-11 14:29N 35°55' E 014°46'0 0.0
2018-May-11 13:58N 35°55' E 014°46'0 0.0
2018-May-11 13:30N 35°55' E 014°46'0 0.0
2018-May-11 12:59N 35°55' E 014°46'0 0.0
2018-May-11 12:30N 35°55' E 014°46'0 0.0
2018-May-11 12:00N 35°55' E 014°46'0 0.0
2018-May-11 11:30N 35°55' E 014°46'0 0.0
2018-May-11 10:58N 35°55' E 014°46'0 0.0
2018-May-11 10:29N 35°55' E 014°46'0 0.0
2018-May-11 10:00N 35°55' E 014°46'0 0.1
2018-May-11 09:30N 35°55' E 014°46'0 0.0
2018-May-11 08:57N 35°55' E 014°46'0 0.0
2018-May-11 08:25N 35°55' E 014°46'0 0.0
2018-May-11 07:57N 35°55' E 014°46'0 0.0
2018-May-11 07:25N 35°55' E 014°46'0 0.0
2018-May-11 06:59N 35°55' E 014°46'0 0.0
2018-May-11 06:28N 35°55' E 014°46'0 0.0
2018-May-11 05:59N 35°55' E 014°46'0 0.0
2018-May-11 05:30N 35°55' E 014°46'0 0.0
2018-May-11 04:55N 35°55' E 014°46'0 0.0
2018-May-11 04:30N 35°55' E 014°46'1 2.4
2018-May-11 03:58N 35°55' E 014°45'0 0.4
2018-May-11 03:24N 35°55' E 014°45'0 0.0
2018-May-11 02:35N 35°55' E 014°45'0 0.0
2018-May-11 02:14N 35°55' E 014°45'0 0.0
2018-May-11 02:00N 35°55' E 014°45'0 0.1
2018-May-11 01:30N 35°55' E 014°45'1 2.0
2018-May-11 01:00N 35°55' E 014°44'3 7.1
2018-May-11 00:30N 35°54' E 014°39'4 7.1
2018-May-11 00:00N 35°54' E 014°35'3 0.2
2018-May-10 10:31N 35°54' E 014°31'0 6.6
2018-May-10 10:30N 35°54' E 014°32'3 6.7
2018-May-10 10:00N 35°54' E 014°36'4 6.8
2018-May-10 09:29N 35°54' E 014°40'3 6.9
2018-May-10 09:01N 35°55' E 014°44'1 0.9
2018-May-10 08:22N 35°55' E 014°45'0 0.0
2018-May-10 07:55N 35°55' E 014°45'0 0.0
2018-May-10 07:26N 35°55' E 014°45'0 0.0
2018-May-10 06:57N 35°55' E 014°45'0 0.0
2018-May-10 06:27N 35°55' E 014°45'0 0.0
2018-May-10 06:00N 35°55' E 014°45'0 0.0
2018-May-10 05:25N 35°55' E 014°45'0 0.0
2018-May-10 04:47N 35°55' E 014°45'0 0.0
2018-May-10 04:28N 35°55' E 014°45'0 0.0
2018-May-10 03:59N 35°55' E 014°45'0 0.0
2018-May-10 03:30N 35°55' E 014°45'0 0.0
2018-May-10 03:00N 35°55' E 014°45'0 0.0
2018-May-10 02:27N 35°55' E 014°45'0 0.0
2018-May-10 01:44N 35°55' E 014°45'0 0.0
2018-May-10 01:28N 35°55' E 014°45'0 0.0
2018-May-10 00:51N 35°55' E 014°45'0 0.1
2018-May-10 00:29N 35°55' E 014°45'0 0.0
2018-May-09 23:41N 35°55' E 014°45'0 0.0
2018-May-09 23:21N 35°55' E 014°45'0 0.1
2018-May-09 22:59N 35°55' E 014°45'0 0.1
2018-May-09 22:27N 35°55' E 014°45'0 0.0
2018-May-09 21:54N 35°55' E 014°45'0 0.0
2018-May-09 21:29N 35°55' E 014°45'0 0.1
2018-May-09 21:00N 35°55' E 014°45'0 0.0
2018-May-09 18:36N 35°55' E 014°45'0 0.0
2018-May-09 18:30N 35°55' E 014°45'0 0.0
2018-May-09 17:58N 35°55' E 014°45'0 0.0
2018-May-09 17:16N 35°55' E 014°45'0 0.0
2018-May-09 16:58N 35°55' E 014°45'0 0.0
2018-May-09 16:29N 35°55' E 014°45'0 0.0
2018-May-09 15:52N 35°55' E 014°45'0 0.0
2018-May-09 15:29N 35°55' E 014°45'0 0.0
2018-May-09 14:58N 35°55' E 014°45'0 0.0
2018-May-09 14:29N 35°55' E 014°45'0 0.0
2018-May-09 13:58N 35°55' E 014°45'0 0.0
2018-May-09 13:29N 35°55' E 014°45'0 0.0
2018-May-09 12:52N 35°55' E 014°45'0 0.0
2018-May-09 12:29N 35°55' E 014°45'0 0.0
2018-May-09 12:00N 35°55' E 014°45'0 0.0
2018-May-09 11:30N 35°55' E 014°45'0 0.0
2018-May-09 10:52N 35°55' E 014°45'0 0.0
2018-May-09 10:30N 35°55' E 014°45'3 0.3
2018-May-09 02:16N 35°54' E 014°48'3 6.7
2018-May-09 01:52N 35°54' E 014°45'1 1.6
2018-May-09 01:29N 35°55' E 014°45'0 0.0
2018-May-09 00:55N 35°55' E 014°45'0 0.0
2018-May-09 00:23N 35°55' E 014°45'0 0.0
2018-May-09 00:00N 35°55' E 014°45'0 0.0
2018-May-08 23:30N 35°55' E 014°45'0 0.1
2018-May-08 23:00N 35°55' E 014°45'0 0.0
2018-May-08 22:29N 35°55' E 014°45'0 0.2
2018-May-08 22:00N 35°55' E 014°45'0 0.1
2018-May-08 21:30N 35°55' E 014°45'0 0.1
2018-May-08 21:00N 35°55' E 014°45'0 0.1
2018-May-08 20:30N 35°55' E 014°45'0 0.0
2018-May-08 20:00N 35°55' E 014°45'0 0.1
2018-May-08 19:30N 35°55' E 014°45'0 0.0
2018-May-08 19:00N 35°55' E 014°45'0 0.0
2018-May-08 18:30N 35°55' E 014°45'0 0.0
2018-May-08 18:00N 35°55' E 014°45'0 0.0
2018-May-08 17:30N 35°55' E 014°45'0 0.0
2018-May-08 17:00N 35°55' E 014°45'0 0.0
2018-May-08 16:30N 35°55' E 014°45'0 0.0
2018-May-08 15:59N 35°55' E 014°45'0 0.1
2018-May-08 15:28N 35°55' E 014°45'3 3.4
2018-May-08 14:40N 35°53' E 014°48'0 0.0
2018-May-08 13:06N 35°54' E 014°48'0 0.0
2018-May-08 12:57N 35°54' E 014°48'0 0.0
2018-May-08 12:27N 35°54' E 014°48'0 0.0
2018-May-08 12:00N 35°54' E 014°48'0 0.0
2018-May-08 11:17N 35°54' E 014°48'0 0.1
2018-May-08 11:00N 35°54' E 014°48'0 0.0
2018-May-08 10:29N 35°54' E 014°48'0 0.1
2018-May-08 09:59N 35°54' E 014°48'0 0.0
2018-May-08 09:30N 35°54' E 014°48'0 0.0
2018-May-08 07:39N 35°53' E 014°48'0 0.0
2018-May-08 07:30N 35°53' E 014°48'0 0.0
2018-May-08 07:00N 35°53' E 014°48'0 0.0
2018-May-08 06:30N 35°53' E 014°48'0 0.0
2018-May-08 05:57N 35°53' E 014°48'0 0.0
2018-May-08 05:30N 35°53' E 014°48'0 0.0
2018-May-08 05:00N 35°53' E 014°48'0 0.0
2018-May-08 04:28N 35°53' E 014°48'0 0.1
2018-May-08 03:51N 35°53' E 014°48'0 0.2
2018-May-08 03:30N 35°54' E 014°48'0 0.0
2018-May-08 03:00N 35°54' E 014°48'0 0.0
2018-May-08 02:28N 35°54' E 014°48'0 0.0
2018-May-08 01:59N 35°54' E 014°48'0 0.0
2018-May-08 00:29N 35°54' E 014°48'0 0.0
2018-May-07 23:58N 35°54' E 014°48'0 0.0
2018-May-07 23:28N 35°54' E 014°48'0 0.5
2018-May-07 23:00N 35°54' E 014°48'3 2.3
2018-May-07 21:51N 35°53' E 014°45'0 0.3
2018-May-07 21:12N 35°53' E 014°45'0 0.0
2018-May-07 20:57N 35°53' E 014°45'0 0.0
2018-May-07 20:29N 35°53' E 014°45'0 0.0
2018-May-07 20:00N 35°53' E 014°45'0 0.1
2018-May-07 19:27N 35°53' E 014°45'0 0.8
2018-May-07 19:00N 35°53' E 014°45'0 0.0
2018-May-07 18:30N 35°53' E 014°45'0 0.1
2018-May-07 17:57N 35°53' E 014°45'0 0.0
2018-May-07 17:28N 35°53' E 014°45'0 0.1
2018-May-07 17:00N 35°53' E 014°45'0 0.0
2018-May-07 16:30N 35°53' E 014°45'1 1.2
2018-May-07 16:00N 35°53' E 014°45'1 2.3
2018-May-07 15:30N 35°53' E 014°47'0 0.1
2018-May-07 15:00N 35°53' E 014°47'0 0.0
2018-May-07 14:30N 35°53' E 014°47'0 0.0
2018-May-07 14:00N 35°53' E 014°47'0 0.0
2018-May-07 13:29N 35°53' E 014°47'0 0.0
2018-May-07 13:00N 35°53' E 014°47'0 0.0
2018-May-07 12:30N 35°53' E 014°47'0 0.0
2018-May-07 12:00N 35°53' E 014°47'0 0.0
2018-May-07 11:30N 35°53' E 014°47'0 0.0
2018-May-07 11:00N 35°53' E 014°47'0 0.8
2018-May-07 10:30N 35°53' E 014°46'0 0.7
2018-May-07 10:00N 35°53' E 014°47'0 0.0
2018-May-07 09:30N 35°53' E 014°47'0 0.0
2018-May-07 09:00N 35°53' E 014°47'0 0.0
2018-May-07 08:28N 35°53' E 014°47'0 0.0
2018-May-07 08:00N 35°53' E 014°47'0 0.1
2018-May-07 07:30N 35°53' E 014°47'0 0.0
2018-May-07 07:00N 35°53' E 014°47'0 0.0
2018-May-07 06:30N 35°53' E 014°47'0 0.0
2018-May-07 06:00N 35°53' E 014°47'  

Dump ship's entire track history